Oslo, Norvegia

07:42 PM CEST on iulie 28, 2015 (GMT +0200)
Kikut | | Change Station
CLOSE
Current Station
Staţie meteo personală
Location: Oslo, OSLO
Elevation: 1158 ft
Nearby Weather Stations

Elev 1158 ft 60.08 °N, 10.66 °E | Updated 11 minutes ago

Mostly Cloudy
Cer în general noros
56.8 °F
Feels Like 56.8 °F
N
4.0
Vânt variabil Vânt from vest
Gusts 6.0 mph

astăzi
High -- | Low -- °F
--% Chance of Precip.
Ieri
High -- | Low -- °F
Precip. -- inch
4:46 AM 9:58 PM
Lună în creştere, 90% visible
Presiunea 29.53 inch
Vizibilitatea 6.2 mile
Nori Few 2500 ft
Cer în general noros 3500 ft
Punctul de rouă 51 °F
Umiditatea 81%
Precipitaţii 0.09 inch
Adâncimea zăpezii Not available.
UV 1 out of 12
Pollen Not available.
Calitatea aerului Not available.
Flu Activity Not available.
METAR ENGM 281720Z 07004KT 340V140 9999 FEW025 BKN035 15/09 Q1000 NOSIG

More Conditions Fewer Conditions

Presiunea 29.53 inch
Vizibilitatea 6.2 mile
Nori Few 2500 ft
Cer în general noros 3500 ft
Punctul de rouă 51 °F
Umiditatea 81%
Precipitaţii 0.09 inch
Adâncimea zăpezii Not available.
UV 1 out of 12
Pollen Not available.
Calitatea aerului Not available.
Flu Activity Not available.
METAR ENGM 281720Z 07004KT 340V140 9999 FEW025 BKN035 15/09 Q1000 NOSIG

More Conditions Fewer Conditions

10-Day Weather Forecast

×

Almanac

Astronomie

Jul. 28, 2015 Răsărit Apus
Timpul Actual
Crepusculul Civil
Crepusculul nautic
Răsărit Astronomic
Luna
Durata zilei lumină
Lungimea zilei
Tomorrow will be .
, % of the Moon is Illuminated

Extremele de azi

Country Highs Country Lows

Community

WunderPhotos

Upload Photos

1,841,900 photos uploaded!

WunderBlogs® & News

Nearby

Calitatea aerului

  Calitatea aerului Index de calitate a aerului Poluat
Not available.

Adâncimea zapezii

Station Depth Elevation

Earthquake Activity

Oraş Distance Mag. Time & Date
Minimum magnitude displayed is 2.5.

Coastal Water Temperatures

Locul Temperatura

Stations

Nearby Weather Stations

Locaţia staţiei Temp Vânt rece Punctul de rouă Umiditatea Vânt Precip. Elev Actualizare Type